Little Valley, Nevada Weather observations

Data are for 10 minute period ending at time listed.
 Day   Time    Ave.   Ave.  Ave.  Vector   Max.   Total    Solar   
  of    of     Air    Rel.  Wind   Wind    Wind  Precip.   Rad.    
Year   Day     Temp.  Hum.  Speed  Dir.    Gust                    
2015   (PST)    F      %     mph   deg.    mph     in.     W/m2    
------------------------------------------------------------------- 
 147    4:00   38.0    84    0.0   133      5.0   12.41       0  
 147    5:00   36.0    88    1.0    38      4.0   12.41       0  
 147    6:00   37.0    85    0.0   110      3.0   12.41      45  
 147    7:00   49.0    73    1.0    62      3.0   12.41     222  
 147    8:00   59.0    45    3.0    51      6.0   12.41     423  
 147    9:00   60.0    40    5.0    52      8.0   12.41     623  
 147   10:00   62.0    36    4.0   101      9.0   12.41     800  
 147   11:00   63.0    31    7.0   238     15.0   12.41     940  
 147   12:00   64.0    34    6.0   215     17.0   12.41    1016  
 147   13:00   66.0    33    5.0   273     17.0   12.41    1035  
 147   14:00   66.0    33    8.0   279     20.0   12.41     988  
 147   15:00   66.0    35   10.0   279     22.0   12.41     888  
 147   16:00   65.0    36   11.0   256     23.0   12.41     740  
 147   17:00   65.0    34    9.0   244     23.0   12.41     542  
 147   18:00   62.0    36    9.0   251     21.0   12.41     327  
 147   19:00   59.0    37   10.0   255     20.0   12.41      17  
 147   20:00   58.0    41   12.0   256     22.0   12.41       6  
 147   21:00   56.0    42    8.0   269     21.0   12.41       0  
 147   22:00   55.0    37    7.0   269     17.0   12.41       0  
 147   23:00   54.0    34    4.0   252     15.0   12.41       0  
 148    0:00   46.0    51    3.0   170     12.0   12.41       0  
 148    1:00   43.0    62    1.0   202      8.0   12.41       0  
 148    2:00   37.0    79    0.0   246      3.0   12.41       0  
 148    3:00   34.0    83    0.0   202      1.0   12.41       0  

Return to Little Valley, Nevada graphs page.


Western Regional Climate Center,wrcc@dri.edu